Terminal Aerodrome Forecast
Issued by NWS

Home | Current Version | Previous Version | Text Only | Print | Product List | Glossary On
Versions: 1 2 3 4 5 6 7 8 9 10 11 12 13 14 15 16 17 18 19 20 21 22 23 24
000
FTUS42 KFFC 020935 AAA
TAFPDK
TAF AMD
KPDK 020935Z 0210/0306 30004KT P6SM SCT009 BKN025
      TEMPO 0210/0211 BKN009
     FM021400 30004KT P6SM SCT015 BKN030
     FM021600 30005KT P6SM VCSH SCT035 BKN050 PROB30 0219/0224 6SM
      TSRA BKN035CB
     FM030200 00000KT P6SM FEW040 SCT080 SCT250=

USA.gov is the U.S. government's official web portal to all federal, state and local government web resources and services.